Terminal Aerodrome Forecast
Issued by NWS

Home | Current Version | Previous Version | Graphics & Text | Print | Product List | Glossary On
Versions: 1 2 3 4 5 6 7 8 9 10 11 12 13 14 15
388
FTUS42 KMHX 182340
TAFISO
TAF
KISO 182340Z 1900/1924 16005KT P6SM VCSH SCT015 OVC020
     FM190500 17005KT 5SM SHRA SCT008 OVC015
     FM191200 18010KT 3SM +SHRA SCT005 OVC015
      AMD LTD TO CLD VIS AND WIND=

USA.gov is the U.S. government's official web portal to all federal, state and local government web resources and services.